Time;durP1;ratioP1;P1;durP2;ratioP2;P2;SDS_P1;SDS_P2;PMS_P1;PMS_P2;Temp;Humidity;BMP_temperature;BMP_pressure;BME280_temperature;BME280_humidity;BME280_pressure;Samples;Min_cycle;Max_cycle;Signal;HPM_P1;HPM_P2
2021/11/09 00:00:58;;;;;;;2.50;1.65;;;5.10;91.20;;;;;;5030589;28;20044;-82
2021/11/09 00:03:24;;;;;;;4.38;2.00;;;5.00;91.30;;;;;;5020338;28;20037;-84
2021/11/09 00:05:58;;;;;;;2.85;1.90;;;5.10;91.50;;;;;;5015943;28;20022;-85
2021/11/09 00:08:32;;;;;;;2.67;2.42;;;5.10;91.50;;;;;;5016416;28;20087;-84
2021/11/09 00:10:58;;;;;;;3.50;1.88;;;5.10;91.50;;;;;;5017711;28;20022;-83
2021/11/09 00:13:24;;;;;;;3.08;2.05;;;5.20;91.60;;;;;;5021983;28;20026;-84
2021/11/09 00:15:50;;;;;;;2.53;2.10;;;5.20;91.60;;;;;;5018344;28;20037;-85
2021/11/09 00:18:16;;;;;;;2.67;2.00;;;5.10;91.70;;;;;;5017754;28;20030;-85
2021/11/09 00:20:42;;;;;;;2.75;1.88;;;5.10;91.90;;;;;;5016098;28;20419;-84
2021/11/09 00:23:09;;;;;;;2.65;2.03;;;5.00;92.10;;;;;;5017138;28;20033;-85
2021/11/09 00:25:37;;;;;;;3.13;2.30;;;5.00;92.30;;;;;;5016136;28;20025;-85
2021/11/09 00:28:04;;;;;;;2.17;1.77;;;5.00;92.40;;;;;;4998914;28;20053;-85
2021/11/09 00:30:30;;;;;;;2.42;1.88;;;5.00;92.50;;;;;;4994308;28;20030;-83
2021/11/09 00:32:57;;;;;;;3.25;1.70;;;5.10;92.60;;;;;;5017681;28;20085;-86
2021/11/09 00:35:25;;;;;;;1.92;1.65;;;5.00;92.60;;;;;;5015908;28;20033;-85
2021/11/09 00:37:53;;;;;;;2.40;1.88;;;4.90;92.80;;;;;;5012418;28;20033;-84
2021/11/09 00:40:22;;;;;;;1.95;1.50;;;4.90;92.90;;;;;;5005732;28;20848;-84
2021/11/09 00:42:48;;;;;;;1.70;1.48;;;4.90;93.00;;;;;;5015613;28;20133;-83
2021/11/09 00:45:16;;;;;;;4.13;1.58;;;4.90;93.10;;;;;;5015477;28;20138;-83
2021/11/09 00:47:43;;;;;;;1.95;1.42;;;4.80;93.20;;;;;;5015160;28;20108;-82
2021/11/09 00:50:10;;;;;;;4.18;1.60;;;4.90;93.30;;;;;;5015111;28;20018;-82
2021/11/09 00:52:37;;;;;;;1.48;1.20;;;4.90;93.40;;;;;;5016109;28;20029;-84
2021/11/09 00:55:04;;;;;;;1.88;1.10;;;4.90;93.40;;;;;;5023338;28;20126;-81
2021/11/09 00:57:30;;;;;;;3.20;1.60;;;4.90;93.40;;;;;;5020507;28;20077;-81
2021/11/09 00:59:56;;;;;;;3.33;1.60;;;4.90;93.50;;;;;;5017647;28;20475;-82
2021/11/09 01:02:22;;;;;;;1.92;1.40;;;4.90;93.50;;;;;;5016907;28;20041;-82
2021/11/09 01:04:48;;;;;;;1.90;1.17;;;4.90;93.60;;;;;;5014861;28;20025;-83
2021/11/09 01:07:14;;;;;;;1.35;1.25;;;4.90;93.60;;;;;;5015985;28;20026;-81
2021/11/09 01:09:40;;;;;;;2.15;1.55;;;4.90;93.70;;;;;;5015363;28;20032;-82
2021/11/09 01:12:07;;;;;;;2.83;1.65;;;4.90;93.90;;;;;;5015404;28;20479;-83
2021/11/09 01:14:33;;;;;;;2.17;1.23;;;4.80;94.10;;;;;;5015488;28;20113;-82
2021/11/09 01:16:59;;;;;;;1.67;1.42;;;4.70;94.40;;;;;;5015119;28;20029;-82
2021/11/09 01:19:26;;;;;;;3.25;1.70;;;4.60;94.70;;;;;;5014763;28;20556;-83
2021/11/09 01:21:51;;;;;;;1.50;1.13;;;4.50;95.10;;;;;;5014656;28;20025;-85
2021/11/09 01:24:18;;;;;;;1.40;0.93;;;4.40;95.40;;;;;;5014851;28;20037;-82
2021/11/09 01:26:45;;;;;;;2.03;1.33;;;4.30;95.70;;;;;;5014556;28;20018;-83
2021/11/09 01:29:13;;;;;;;3.35;1.55;;;4.30;96.00;;;;;;5014467;28;20037;-82
2021/11/09 01:31:40;;;;;;;1.75;1.30;;;4.20;96.30;;;;;;5014491;28;20022;-82
2021/11/09 01:34:07;;;;;;;1.08;0.68;;;4.20;96.60;;;;;;5014464;28;20022;-82
2021/11/09 01:36:33;;;;;;;1.27;1.15;;;4.10;96.70;;;;;;5014541;28;20553;-82
2021/11/09 01:38:59;;;;;;;1.40;1.30;;;4.10;96.90;;;;;;5014371;28;20402;-83
2021/11/09 01:41:25;;;;;;;1.10;1.00;;;4.00;97.00;;;;;;5014307;28;20022;-83
2021/11/09 01:43:52;;;;;;;1.88;1.13;;;4.00;97.20;;;;;;5014352;28;20100;-83
2021/11/09 01:46:19;;;;;;;2.00;1.40;;;4.00;97.30;;;;;;5014616;28;20018;-83
2021/11/09 01:48:45;;;;;;;5.13;1.25;;;3.90;97.50;;;;;;5014044;28;20022;-83
2021/11/09 01:51:17;;;;;;;0.98;0.82;;;3.80;97.60;;;;;;4996613;28;20037;-82
2021/11/09 01:53:46;;;;;;;1.45;1.10;;;3.70;97.70;;;;;;5014376;28;20112;-81
2021/11/09 01:56:16;;;;;;;1.95;0.90;;;3.50;97.60;;;;;;5013897;28;20018;-82
2021/11/09 01:58:43;;;;;;;0.88;0.88;;;3.40;97.70;;;;;;5015178;28;20022;-82
2021/11/09 02:01:12;;;;;;;1.35;1.15;;;3.30;97.90;;;;;;5015078;28;20101;-82
2021/11/09 02:03:41;;;;;;;1.42;0.93;;;3.10;97.60;;;;;;5016024;28;20037;-83
2021/11/09 02:06:08;;;;;;;0.93;0.88;;;;;;;;;;5013026;28;20104;-82
2021/11/09 02:08:34;;;;;;;0.63;0.60;;;2.90;97.80;;;;;;5015193;28;20470;-83
2021/11/09 02:11:00;;;;;;;0.80;0.80;;;2.80;98.20;;;;;;5020157;28;20033;-82
2021/11/09 02:13:27;;;;;;;0.82;0.60;;;2.70;98.20;;;;;;5015593;28;20113;-84
2021/11/09 02:15:53;;;;;;;0.60;0.60;;;2.60;98.30;;;;;;4996293;28;20611;-84
2021/11/09 02:18:21;;;;;;;1.35;0.90;;;2.50;98.60;;;;;;5013861;28;20053;-83
2021/11/09 02:20:57;;;;;;;1.10;0.77;;;2.40;98.80;;;;;;5015663;28;20537;-83
2021/11/09 02:23:27;;;;;;;1.30;0.68;;;2.30;99.00;;;;;;5016986;28;20443;-83
2021/11/09 02:25:54;;;;;;;1.27;0.95;;;2.30;99.20;;;;;;5014288;28;20050;-83
2021/11/09 02:28:21;;;;;;;0.85;0.80;;;2.20;99.30;;;;;;5013909;28;20021;-84
2021/11/09 02:30:47;;;;;;;5.03;1.00;;;2.20;99.50;;;;;;5013612;28;20034;-84
2021/11/09 02:33:14;;;;;;;1.20;0.60;;;2.20;99.60;;;;;;5013732;28;20030;-82
2021/11/09 02:35:40;;;;;;;0.63;0.63;;;2.20;99.70;;;;;;5013789;28;20018;-82
2021/11/09 02:38:06;;;;;;;1.10;0.88;;;2.10;99.70;;;;;;5013160;28;20085;-83
2021/11/09 02:40:34;;;;;;;0.85;0.65;;;2.10;99.90;;;;;;5014835;28;20482;-83
2021/11/09 02:43:07;;;;;;;0.65;0.40;;;2.20;99.90;;;;;;5014932;28;20033;-84
2021/11/09 02:45:46;;;;;;;0.80;0.80;;;2.20;99.90;;;;;;5016051;28;20018;-82
2021/11/09 02:48:17;;;;;;;0.93;0.55;;;2.20;99.90;;;;;;5015125;28;20438;-83
2021/11/09 02:50:47;;;;;;;1.13;0.40;;;2.20;99.90;;;;;;5016866;28;20068;-84
2021/11/09 02:54:02;;;;;;;1.02;0.80;;;2.30;99.90;;;;;;5018525;28;20029;-83
2021/11/09 02:56:10;;;;;;;1.25;0.73;;;2.30;99.90;;;;;;5005231;28;20030;-84
2021/11/09 02:58:52;;;;;;;0.75;0.63;;;2.30;99.90;;;;;;5020288;28;20090;-83
2021/11/09 03:04:25;;;;;;;0.57;0.57;;;2.20;99.90;;;;;;4978759;28;20047;-82
2021/11/09 03:06:58;;;;;;;0.60;0.60;;;2.20;99.90;;;;;;5014276;28;20026;-84
2021/11/09 03:09:44;;;;;;;1.58;0.50;;;2.20;99.90;;;;;;5033300;28;20038;-82
2021/11/09 03:12:11;;;;;;;0.50;0.50;;;2.20;99.90;;;;;;5036083;28;20062;-84
2021/11/09 03:14:40;;;;;;;0.45;0.40;;;2.20;99.90;;;;;;5030062;28;20026;-83
2021/11/09 03:17:18;;;;;;;0.43;0.40;;;2.10;99.90;;;;;;5019435;28;20033;-83
2021/11/09 03:19:58;;;;;;;1.10;0.60;;;2.20;99.90;;;;;;5015944;28;20061;-84
2021/11/09 03:46:59;;;;;;;1.38;1.20;;;2.10;99.90;;;;;;5013786;28;20018;-84
2021/11/09 03:49:28;;;;;;;0.55;0.50;;;2.10;99.90;;;;;;4993731;28;20026;-82
2021/11/09 03:51:57;;;;;;;1.30;0.60;;;2.10;99.90;;;;;;4995994;28;20027;-82
2021/11/09 03:54:32;;;;;;;1.05;0.80;;;2.10;99.90;;;;;;4996969;28;20023;-84
2021/11/09 03:57:12;;;;;;;0.60;0.43;;;2.10;99.90;;;;;;4998172;28;20050;-86
2021/11/09 04:07:10;;;;;;;0.85;0.82;;;1.90;99.90;;;;;;4997784;28;20116;-81
2021/11/09 04:12:56;;;;;;;2.03;0.73;;;1.80;99.90;;;;;;4997391;28;20401;-80
2021/11/09 04:14:59;;;;;;;2.58;0.82;;;1.70;99.90;;;;;;4992420;28;20050;-82
2021/11/09 04:17:44;;;;;;;6.53;2.90;;;1.60;99.90;;;;;;4996195;28;20050;-83
2021/11/09 04:52:47;;;;;;;1.42;0.98;;;1.40;99.70;;;;;;5015411;28;20105;-82
2021/11/09 05:09:08;;;;;;;2.67;2.00;;;1.40;99.90;;;;;;5015763;28;20033;-84
2021/11/09 05:11:37;;;;;;;3.83;2.85;;;1.40;99.90;;;;;;5016523;28;20073;-84
2021/11/09 05:14:05;;;;;;;4.50;2.92;;;1.40;99.50;;;;;;5014033;28;20017;-83
2021/11/09 05:16:31;;;;;;;5.28;2.83;;;1.40;99.30;;;;;;5015594;28;20132;-83
2021/11/09 05:18:57;;;;;;;4.07;3.10;;;1.40;99.40;;;;;;4996307;28;20038;-83
2021/11/09 05:21:23;;;;;;;7.68;3.97;;;1.40;99.30;;;;;;5008446;28;20069;-83
2021/11/09 05:23:49;;;;;;;8.02;3.20;;;1.40;98.90;;;;;;5018392;28;20037;-82
2021/11/09 05:26:15;;;;;;;6.97;3.30;;;1.40;98.10;;;;;;5020181;28;20025;-83
2021/11/09 05:28:41;;;;;;;4.18;3.40;;;1.30;97.50;;;;;;5026251;28;20026;-82
2021/11/09 05:31:07;;;;;;;4.47;3.58;;;1.30;97.50;;;;;;5016769;28;20033;-82
2021/11/09 05:33:33;;;;;;;5.53;3.30;;;1.40;97.60;;;;;;4999835;28;20057;-82
2021/11/09 05:36:00;;;;;;;6.95;4.22;;;1.40;97.00;;;;;;4998355;28;20014;-84
2021/11/09 05:38:32;;;;;;;4.93;3.60;;;1.30;96.80;;;;;;4996039;28;20071;-82
2021/11/09 05:41:06;;;;;;;4.90;3.55;;;1.30;96.90;;;;;;5000299;28;20022;-83
2021/11/09 05:43:32;;;;;;;5.50;4.00;;;1.30;96.70;;;;;;5015194;28;20112;-83
2021/11/09 05:45:58;;;;;;;5.78;3.58;;;1.30;96.50;;;;;;5015103;28;20060;-80
2021/11/09 05:48:23;;;;;;;6.00;5.40;;;1.30;96.80;;;;;;5015612;28;20064;-82
2021/11/09 05:50:50;;;;;;;4.55;3.08;;;1.30;96.70;;;;;;5014523;28;20072;-82
2021/11/09 05:53:16;;;;;;;4.40;3.38;;;1.30;96.50;;;;;;5015371;28;20022;-79
2021/11/09 05:55:42;;;;;;;6.88;3.75;;;1.20;95.80;;;;;;5013693;28;20085;-82
2021/11/09 05:58:08;;;;;;;8.88;5.22;;;1.20;95.70;;;;;;5014102;28;20046;-83
2021/11/09 06:00:34;;;;;;;6.43;4.03;;;1.20;95.90;;;;;;5017963;28;20037;-82
2021/11/09 06:03:00;;;;;;;5.65;3.75;;;1.20;96.00;;;;;;5018789;28;20037;-82
2021/11/09 06:05:26;;;;;;;6.97;4.68;;;1.20;96.10;;;;;;5013571;28;20479;-81
2021/11/09 06:07:52;;;;;;;4.82;4.28;;;1.30;96.10;;;;;;5015014;28;20025;-84
2021/11/09 06:10:18;;;;;;;6.03;4.78;;;1.30;96.10;;;;;;5003339;28;20109;-82
2021/11/09 06:12:44;;;;;;;5.75;3.85;;;1.30;96.00;;;;;;5015801;28;20029;-83
2021/11/09 06:15:09;;;;;;;5.20;4.28;;;1.30;96.10;;;;;;5013180;28;20109;-83
2021/11/09 06:17:35;;;;;;;6.90;4.22;;;1.30;96.30;;;;;;5013291;28;20030;-84
2021/11/09 06:20:01;;;;;;;7.32;5.03;;;1.40;96.30;;;;;;4995460;28;20030;-82
2021/11/09 06:22:27;;;;;;;6.35;4.13;;;1.40;95.90;;;;;;5013187;28;20113;-83
2021/11/09 06:24:53;;;;;;;5.93;4.72;;;1.30;95.20;;;;;;5016072;28;20110;-84
2021/11/09 06:27:21;;;;;;;6.65;4.75;;;1.20;94.90;;;;;;5018808;28;20025;-83
2021/11/09 06:29:47;;;;;;;5.95;5.32;;;1.20;94.80;;;;;;5014257;28;20022;-82
2021/11/09 06:32:16;;;;;;;6.63;4.63;;;1.20;94.90;;;;;;5013647;28;20029;-81
2021/11/09 06:34:41;;;;;;;4.88;4.32;;;1.20;94.90;;;;;;5013271;28;20065;-83
2021/11/09 06:37:07;;;;;;;4.93;4.10;;;1.20;94.70;;;;;;5013432;28;20432;-83
2021/11/09 06:39:33;;;;;;;4.35;3.60;;;1.20;94.50;;;;;;5013520;28;20390;-82
2021/11/09 06:41:59;;;;;;;4.70;3.85;;;1.30;94.10;;;;;;5013269;28;20022;-82
2021/11/09 06:44:25;;;;;;;7.57;4.03;;;1.10;92.70;;;;;;5013670;28;20549;-85
2021/11/09 06:46:51;;;;;;;5.05;3.60;;;1.10;92.90;;;;;;5013354;28;20490;-83
2021/11/09 06:49:17;;;;;;;3.92;3.50;;;1.20;92.60;;;;;;5013557;28;20025;-84
2021/11/09 06:51:43;;;;;;;8.15;4.10;;;1.20;92.60;;;;;;5013397;28;20153;-84
2021/11/09 06:54:09;;;;;;;8.18;3.60;;;1.10;91.80;;;;;;5013661;28;20101;-85
2021/11/09 06:56:36;;;;;;;5.10;3.13;;;1.00;91.70;;;;;;5013168;28;20124;-83
2021/11/09 06:59:04;;;;;;;5.70;4.43;;;0.90;92.00;;;;;;5013898;28;20381;-83
2021/11/09 07:01:31;;;;;;;5.32;3.15;;;0.90;92.20;;;;;;5014046;28;20030;-83
2021/11/09 07:03:57;;;;;;;4.57;2.72;;;0.90;92.10;;;;;;5013397;28;20057;-83
2021/11/09 07:06:24;;;;;;;4.70;2.50;;;0.90;92.00;;;;;;4996194;28;20030;-84
2021/11/09 07:08:50;;;;;;;9.23;2.10;;;1.00;92.20;;;;;;5013589;28;20022;-83
2021/11/09 07:11:16;;;;;;;3.63;2.20;;;1.00;91.80;;;;;;5012873;28;20030;-83
2021/11/09 07:13:44;;;;;;;2.92;2.03;;;0.90;91.50;;;;;;5013107;28;20062;-82
2021/11/09 07:16:11;;;;;;;2.95;2.22;;;1.00;91.70;;;;;;5012415;28;20413;-79
2021/11/09 07:18:36;;;;;;;3.50;2.67;;;1.00;92.00;;;;;;5010502;28;20051;-82
2021/11/09 07:21:03;;;;;;;4.85;2.75;;;1.00;91.90;;;;;;5011799;28;20026;-81
2021/11/09 07:23:29;;;;;;;4.90;2.95;;;1.00;92.10;;;;;;5012753;28;20033;-81
2021/11/09 07:25:55;;;;;;;2.70;2.20;;;1.00;92.10;;;;;;5015804;28;20467;-81
2021/11/09 07:28:20;;;;;;;5.32;2.53;;;1.00;91.90;;;;;;5017887;28;20026;-84
2021/11/09 07:30:57;;;;;;;3.28;2.15;;;1.00;91.60;;;;;;5016214;28;20109;-81
2021/11/09 07:33:23;;;;;;;5.95;2.97;;;0.90;91.70;;;;;;5015474;28;20072;-81
2021/11/09 07:35:49;;;;;;;5.13;2.47;;;0.90;91.50;;;;;;5016687;28;20475;-80
2021/11/09 07:38:16;;;;;;;3.17;1.95;;;0.90;91.70;;;;;;5017728;28;20487;-81
2021/11/09 07:40:42;;;;;;;2.92;2.20;;;0.90;91.30;;;;;;5017716;28;20390;-83
2021/11/09 07:43:08;;;;;;;4.10;2.25;;;0.90;91.50;;;;;;5016732;28;20041;-83
2021/11/09 07:45:35;;;;;;;3.95;1.75;;;0.90;91.00;;;;;;5002939;28;20045;-82
2021/11/09 07:48:02;;;;;;;3.25;2.50;;;0.90;90.40;;;;;;5017752;28;20034;-81
2021/11/09 07:50:29;;;;;;;3.28;2.03;;;0.80;90.10;;;;;;5015297;28;20030;-81
2021/11/09 07:52:57;;;;;;;3.47;1.70;;;0.80;90.70;;;;;;4998596;28;20022;-80
2021/11/09 07:55:25;;;;;;;6.65;2.08;;;0.90;90.00;;;;;;5016056;28;20498;-81
2021/11/09 07:57:56;;;;;;;2.70;2.00;;;0.80;90.00;;;;;;5015833;28;20470;-80
2021/11/09 08:00:36;;;;;;;1.92;1.48;;;0.70;89.70;;;;;;5015849;28;20097;-82
2021/11/09 08:05:44;;;;;;;2.60;2.13;;;0.70;89.10;;;;;;5016006;28;20064;-83
2021/11/09 08:08:18;;;;;;;4.72;2.13;;;0.70;88.60;;;;;;5015789;28;20052;-80
2021/11/09 08:10:44;;;;;;;2.47;2.00;;;0.80;89.20;;;;;;5000337;28;20021;-84
2021/11/09 08:13:11;;;;;;;3.55;2.10;;;0.80;87.10;;;;;;5019270;28;20045;-82
2021/11/09 08:15:37;;;;;;;3.80;1.95;;;0.70;87.20;;;;;;5015892;28;20108;-81
2021/11/09 08:18:04;;;;;;;1.75;1.20;;;0.70;87.40;;;;;;5015613;28;20026;-82
2021/11/09 08:20:30;;;;;;;3.83;1.73;;;0.70;86.60;;;;;;5015678;28;20032;-82
2021/11/09 08:22:56;;;;;;;4.88;1.52;;;0.70;86.70;;;;;;5015246;28;20034;-83
2021/11/09 08:25:23;;;;;;;2.22;1.95;;;0.60;86.70;;;;;;5015164;28;20121;-81
2021/11/09 08:27:49;;;;;;;3.97;1.70;;;0.60;86.70;;;;;;4997925;28;20033;-83
2021/11/09 08:30:15;;;;;;;3.58;1.23;;;0.70;87.50;;;;;;5015238;28;20018;-82
2021/11/09 08:32:42;;;;;;;4.70;2.10;;;0.80;87.80;;;;;;5014885;28;20018;-80
2021/11/09 08:35:11;;;;;;;5.28;1.70;;;0.90;87.80;;;;;;5014998;28;20033;-82
2021/11/09 08:37:38;;;;;;;5.88;2.17;;;0.90;86.90;;;;;;5014310;28;20022;-82
2021/11/09 08:40:10;;;;;;;6.50;3.55;;;0.90;87.50;;;;;;4997484;28;20033;-81
2021/11/09 08:42:45;;;;;;;2.10;1.50;;;0.90;86.80;;;;;;5015054;28;20482;-82
2021/11/09 08:47:53;;;;;;;2.63;1.00;;;0.90;86.10;;;;;;5015003;28;20030;-82
2021/11/09 08:50:21;;;;;;;3.63;1.80;;;0.90;86.30;;;;;;5014864;28;20108;-83
2021/11/09 08:52:47;;;;;;;3.63;2.05;;;0.90;86.10;;;;;;5015167;28;20500;-82
2021/11/09 09:01:03;;;;;;;2.75;1.45;;;0.90;85.50;;;;;;5014654;28;20140;-80
2021/11/09 09:01:17;;;;;;;2.95;1.75;;;0.90;86.10;;;;;;4997536;28;20046;-81
2021/11/09 09:06:30;;;;;;;3.67;2.13;;;1.00;85.90;;;;;;5015768;28;20097;-82
2021/11/09 09:08:58;;;;;;;5.10;2.35;;;1.00;85.80;;;;;;5015012;28;20372;-81
2021/11/09 09:11:24;;;;;;;3.13;1.48;;;0.90;84.30;;;;;;5014424;28;20068;-82
2021/11/09 09:13:50;;;;;;;5.35;1.95;;;0.90;83.40;;;;;;5014729;28;20394;-81
2021/11/09 09:16:16;;;;;;;2.67;1.70;;;1.00;81.40;;;;;;5014169;28;20026;-82
2021/11/09 09:18:43;;;;;;;3.30;1.55;;;1.30;80.50;;;;;;4996955;28;20033;-81
2021/11/09 09:21:13;;;;;;;3.42;1.23;;;1.80;78.80;;;;;;5014085;28;20018;-81
2021/11/09 09:23:51;;;;;;;5.50;1.33;;;2.20;76.40;;;;;;5013862;28;20407;-80
2021/11/09 09:32:31;;;;;;;3.13;1.60;;;2.00;73.10;;;;;;5015098;28;20427;-82
2021/11/09 09:56:54;;;;;;;5.32;2.35;;;5.60;63.40;;;;;;5014148;28;20487;-81
2021/11/09 09:59:22;;;;;;;6.05;2.65;;;5.70;63.00;;;;;;5016616;28;20041;-82
2021/11/09 10:02:13;;;;;;;5.72;2.00;;;6.00;63.00;;;;;;5000958;28;20475;-83
2021/11/09 10:04:44;;;;;;;3.20;1.75;;;6.20;62.00;;;;;;5015658;28;20173;-81
2021/11/09 10:07:13;;;;;;;5.88;1.92;;;6.60;59.80;;;;;;5014314;28;20042;-82
2021/11/09 10:09:45;;;;;;;2.60;1.60;;;6.40;58.30;;;;;;5014037;28;20026;-82
2021/11/09 10:12:33;;;;;;;7.05;2.33;;;5.60;59.60;;;;;;5016131;28;20022;-81
2021/11/09 10:15:19;;;;;;;4.65;1.70;;;4.90;61.30;;;;;;5015427;28;20122;-81
2021/11/09 10:17:57;;;;;;;5.15;1.58;;;4.10;62.00;;;;;;5014171;28;20021;-82
2021/11/09 10:20:34;;;;;;;2.70;1.63;;;3.20;64.20;;;;;;5013542;28;20061;-81
2021/11/09 10:23:06;;;;;;;2.90;1.42;;;2.60;66.60;;;;;;5013439;28;20044;-82
2021/11/09 10:25:33;;;;;;;2.20;1.08;;;2.20;68.10;;;;;;4995485;28;20017;-83
2021/11/09 10:28:10;;;;;;;1.40;1.10;;;1.70;69.80;;;;;;5013302;28;20022;-81
2021/11/09 10:30:42;;;;;;;3.70;1.57;;;1.50;70.50;;;;;;5013086;28;20379;-81
2021/11/09 10:33:12;;;;;;;3.47;1.60;;;1.40;71.60;;;;;;5013200;28;20026;-82
2021/11/09 10:35:38;;;;;;;3.50;1.48;;;1.30;71.90;;;;;;5013322;28;20029;-81
2021/11/09 10:38:04;;;;;;;4.18;2.15;;;1.30;72.40;;;;;;5013087;28;20030;-83
2021/11/09 10:40:36;;;;;;;5.63;1.88;;;1.30;72.40;;;;;;5012729;28;20022;-80
2021/11/09 10:43:10;;;;;;;4.25;1.33;;;1.40;73.00;;;;;;4997331;28;20038;-82
2021/11/09 10:45:38;;;;;;;4.22;1.35;;;1.40;72.40;;;;;;5013497;28;20034;-82
2021/11/09 10:48:10;;;;;;;4.45;1.58;;;1.30;72.20;;;;;;5013307;28;20014;-82
2021/11/09 10:50:52;;;;;;;3.83;2.28;;;1.10;70.80;;;;;;4995137;28;20081;-82
2021/11/09 10:53:42;;;;;;;6.43;2.40;;;0.90;72.10;;;;;;5012761;28;20073;-81
2021/11/09 11:04:37;;;;;;;4.93;1.42;;;0.60;73.70;;;;;;5017828;28;20084;-81
2021/11/09 11:07:06;;;;;;;4.50;1.92;;;0.60;74.40;;;;;;4999530;28;20022;-82
2021/11/09 11:09:36;;;;;;;3.65;1.75;;;0.70;74.60;;;;;;5017036;28;20348;-82
2021/11/09 11:12:14;;;;;;;4.85;1.70;;;0.80;74.60;;;;;;4999491;28;20021;-82
2021/11/09 11:14:45;;;;;;;6.00;1.48;;;0.80;73.60;;;;;;5016733;28;20064;-81
2021/11/09 11:17:16;;;;;;;5.20;1.20;;;0.70;72.80;;;;;;5016855;28;20329;-82
2021/11/09 11:19:57;;;;;;;4.47;1.55;;;0.60;73.20;;;;;;4998804;28;20026;-82
2021/11/09 11:22:28;;;;;;;3.15;1.80;;;0.50;73.30;;;;;;5016285;28;20073;-82
2021/11/09 11:24:57;;;;;;;1.88;1.20;;;0.40;73.60;;;;;;5016627;28;20021;-85
2021/11/09 11:27:26;;;;;;;3.05;1.33;;;0.40;74.80;;;;;;5018271;28;20019;-81
2021/11/09 11:29:52;;;;;;;8.60;1.92;;;0.50;75.00;;;;;;5000521;28;20468;-82
2021/11/09 11:32:22;;;;;;;3.50;1.85;;;0.50;75.00;;;;;;5017714;28;20045;-81
2021/11/09 11:34:49;;;;;;;3.55;1.90;;;0.50;74.70;;;;;;5017600;28;20152;-81
2021/11/09 11:37:18;;;;;;;1.50;1.30;;;0.50;74.00;;;;;;5016833;28;20117;-82
2021/11/09 11:39:47;;;;;;;3.05;1.70;;;0.50;74.00;;;;;;5016391;28;20029;-81
2021/11/09 11:42:18;;;;;;;14.48;2.15;;;0.40;73.50;;;;;;4998801;28;20018;-82
2021/11/09 11:44:54;;;;;;;3.58;1.45;;;0.40;73.30;;;;;;4998570;28;20437;-82
2021/11/09 11:47:24;;;;;;;1.73;1.20;;;0.30;73.60;;;;;;5016333;28;20024;-83
2021/11/09 11:49:59;;;;;;;4.47;1.95;;;0.30;73.80;;;;;;5016303;28;20395;-82
2021/11/09 11:52:42;;;;;;;3.45;1.77;;;0.30;74.00;;;;;;5016400;28;20034;-83
2021/11/09 11:55:21;;;;;;;3.20;2.00;;;0.30;74.10;;;;;;4998695;28;20093;-81
2021/11/09 11:58:02;;;;;;;2.95;1.45;;;0.30;74.50;;;;;;5016119;28;20573;-81
2021/11/09 12:00:31;;;;;;;2.70;1.52;;;0.30;74.00;;;;;;5015679;28;20426;-82
2021/11/09 12:03:24;;;;;;;6.30;2.17;;;0.30;73.70;;;;;;5016341;28;20038;-83
2021/11/09 12:05:52;;;;;;;5.07;2.10;;;0.40;74.00;;;;;;5018055;28;20022;-81
2021/11/09 12:08:33;;;;;;;5.15;1.48;;;0.40;74.20;;;;;;5017721;28;20386;-83
2021/11/09 12:11:00;;;;;;;5.35;2.15;;;0.40;73.60;;;;;;5014640;28;20379;-82
2021/11/09 12:13:26;;;;;;;3.40;1.40;;;0.50;74.10;;;;;;5015719;28;20030;-82
2021/11/09 12:16:02;;;;;;;4.60;2.20;;;0.50;74.20;;;;;;5020360;28;20066;-82
2021/11/09 12:18:28;;;;;;;6.15;2.72;;;0.50;74.10;;;;;;5026201;28;20082;-81
2021/11/09 12:21:06;;;;;;;4.35;2.28;;;0.40;73.30;;;;;;5023077;28;20049;-83
2021/11/09 12:23:35;;;;;;;7.00;2.33;;;0.40;73.80;;;;;;5016799;28;20026;-81
2021/11/09 12:26:01;;;;;;;5.63;2.22;;;0.40;74.20;;;;;;5016268;28;20064;-81
2021/11/09 12:28:37;;;;;;;4.22;1.33;;;0.30;74.00;;;;;;5016456;28;20494;-82
2021/11/09 12:31:15;;;;;;;4.20;1.13;;;0.30;73.70;;;;;;5016277;28;20026;-81
2021/11/09 12:33:47;;;;;;;2.67;1.27;;;0.30;73.60;;;;;;5015837;28;20033;-81
2021/11/09 12:36:12;;;;;;;7.35;1.48;;;0.20;74.00;;;;;;5015071;28;20432;-82
2021/11/09 12:38:40;;;;;;;4.80;1.85;;;0.20;74.30;;;;;;4997664;28;20034;-81
2021/11/09 12:41:15;;;;;;;6.65;2.28;;;0.20;74.40;;;;;;5015699;28;20089;-82
2021/11/09 12:43:44;;;;;;;4.20;1.80;;;0.20;74.80;;;;;;5015788;28;20435;-83
2021/11/09 12:46:38;;;;;;;3.72;2.33;;;0.30;75.10;;;;;;5015367;28;20028;-81
2021/11/09 12:49:10;;;;;;;6.40;1.60;;;0.20;75.70;;;;;;5014950;28;20026;-81
2021/11/09 12:51:47;;;;;;;2.53;1.50;;;0.20;75.90;;;;;;5015270;28;20026;-82
2021/11/09 12:54:19;;;;;;;3.65;1.50;;;0.20;76.00;;;;;;5014948;28;20022;-80
2021/11/09 12:56:56;;;;;;;5.28;2.00;;;0.20;76.10;;;;;;5015008;28;20042;-81
2021/11/09 13:04:47;;;;;;;2.78;1.52;;;0.20;76.70;;;;;;5015090;28;20080;-83
2021/11/09 13:10:13;;;;;;;9.07;2.22;;;0.10;77.50;;;;;;5014944;28;20037;-82
2021/11/09 13:12:40;;;;;;;2.85;1.42;;;0.20;77.70;;;;;;5014805;28;20038;-80
2021/11/09 13:15:16;;;;;;;3.58;1.27;;;0.20;77.60;;;;;;5014772;28;20022;-81
2021/11/09 13:17:54;;;;;;;3.30;1.83;;;0.20;77.80;;;;;;5014650;28;20092;-81
2021/11/09 13:21:12;;;;;;;4.78;2.22;;;0.30;78.20;;;;;;5014316;28;20025;-82
2021/11/09 13:23:15;;;;;;;10.48;2.10;;;0.20;78.00;;;;;;5000130;28;20096;-81
2021/11/09 13:25:43;;;;;;;3.33;1.60;;;0.30;78.10;;;;;;5014507;28;20029;-82
2021/11/09 13:28:13;;;;;;;6.05;1.85;;;0.30;77.70;;;;;;5014974;28;20054;-82
2021/11/09 13:30:41;;;;;;;3.70;1.75;;;0.30;77.80;;;;;;5015459;28;20022;-83
2021/11/09 13:33:08;;;;;;;5.70;1.83;;;0.20;77.60;;;;;;5014449;28;20050;-82
2021/11/09 13:35:39;;;;;;;2.08;1.70;;;0.20;77.70;;;;;;5014572;28;20034;-80
2021/11/09 13:38:06;;;;;;;7.32;2.50;;;0.20;77.80;;;;;;5014400;28;20471;-81
2021/11/09 13:40:32;;;;;;;3.47;2.05;;;0.20;77.80;;;;;;5014229;28;20033;-80
2021/11/09 13:43:03;;;;;;;3.58;1.60;;;0.20;78.00;;;;;;5014039;28;20034;-81
2021/11/09 13:45:29;;;;;;;3.00;1.83;;;0.20;77.50;;;;;;5014683;28;20018;-81
2021/11/09 13:47:55;;;;;;;2.97;1.88;;;0.30;77.50;;;;;;5014155;28;20108;-79
2021/11/09 13:50:21;;;;;;;2.85;1.50;;;0.20;77.20;;;;;;5014168;28;20050;-85
2021/11/09 13:52:49;;;;;;;1.35;1.10;;;0.30;76.10;;;;;;5013751;28;20046;-83
2021/11/09 13:55:18;;;;;;;2.58;1.40;;;0.30;75.70;;;;;;5013777;28;20026;-81
2021/11/09 13:57:45;;;;;;;3.67;1.80;;;0.30;75.90;;;;;;5013730;28;20056;-81
2021/11/09 14:00:26;;;;;;;4.72;1.98;;;0.20;76.40;;;;;;5013695;28;20398;-81
2021/11/09 14:16:53;;;;;;;2.15;1.50;;;0.10;76.80;;;;;;5014564;28;20036;-81
2021/11/09 14:19:30;;;;;;;;;;;0.10;77.30;;;;;;5017092;28;20416;-80
2021/11/09 14:21:57;;;;;;;2.25;1.40;;;0.10;77.20;;;;;;5014526;28;19905;-82
2021/11/09 14:24:30;;;;;;;2.17;1.52;;;0.10;77.30;;;;;;5013689;28;20399;-81
2021/11/09 14:27:11;;;;;;;3.78;1.92;;;0.10;77.30;;;;;;5013452;28;20026;-81
2021/11/09 14:29:42;;;;;;;5.32;1.48;;;0.00;77.40;;;;;;5013578;28;20026;-82
2021/11/09 14:32:08;;;;;;;8.15;1.35;;;0.00;77.10;;;;;;5014033;28;20072;-80
2021/11/09 14:34:35;;;;;;;4.93;1.42;;;0.00;77.10;;;;;;4999673;28;20483;-80
2021/11/09 14:37:21;;;;;;;2.20;1.40;;;0.00;77.10;;;;;;5020706;28;20028;-80
2021/11/09 14:40:06;;;;;;;5.32;1.33;;;-0.10;77.40;;;;;;4998967;28;20033;-81
2021/11/09 14:47:59;;;;;;;6.78;2.05;;;0.00;77.50;;;;;;5013602;28;20034;-82
2021/11/09 14:51:06;;;;;;;3.03;1.90;;;0.00;77.80;;;;;;5013721;28;20048;-81
2021/11/09 14:53:31;;;;;;;1.92;1.58;;;0.00;77.90;;;;;;5008232;28;20042;-81
2021/11/09 14:56:17;;;;;;;3.33;1.70;;;0.10;77.80;;;;;;5015773;28;20026;-82
2021/11/09 14:58:53;;;;;;;2.10;1.37;;;0.10;78.00;;;;;;5014441;28;20050;-83
2021/11/09 15:01:26;;;;;;;6.63;1.92;;;0.20;77.90;;;;;;4995587;28;20034;-81
2021/11/09 15:03:52;;;;;;;6.75;2.00;;;0.20;77.60;;;;;;5012988;28;20033;-81
2021/11/09 15:06:27;;;;;;;3.47;2.13;;;0.30;78.00;;;;;;5012633;28;20070;-81
2021/11/09 15:09:08;;;;;;;4.38;1.90;;;0.30;78.10;;;;;;4996000;28;20034;-79
2021/11/09 15:25:39;;;;;;;3.55;1.77;;;0.30;79.30;;;;;;5013742;28;20033;-80
2021/11/09 15:28:19;;;;;;;5.43;1.98;;;0.30;79.40;;;;;;5012964;28;20453;-80
2021/11/09 15:31:04;;;;;;;13.05;2.75;;;0.30;79.50;;;;;;5012096;28;20026;-82
2021/11/09 15:33:33;;;;;;;2.95;1.95;;;0.30;79.20;;;;;;5012173;28;20053;-80
2021/11/09 15:36:13;;;;;;;5.60;1.70;;;0.30;78.80;;;;;;4994564;28;20483;-82
2021/11/09 15:38:40;;;;;;;6.50;1.58;;;0.30;78.40;;;;;;5011138;28;20021;-81
2021/11/09 15:41:06;;;;;;;3.65;2.08;;;0.40;78.50;;;;;;5012453;28;20022;-81
2021/11/09 15:43:33;;;;;;;3.10;2.17;;;0.40;78.40;;;;;;5012524;28;20572;-82
2021/11/09 15:46:02;;;;;;;7.30;1.80;;;0.40;78.90;;;;;;5013272;28;20030;-81
2021/11/09 15:48:29;;;;;;;2.25;1.45;;;0.50;78.50;;;;;;5016288;28;20033;-81
2021/11/09 15:51:02;;;;;;;5.05;1.90;;;0.50;78.80;;;;;;5017150;28;20410;-83
2021/11/09 15:53:28;;;;;;;3.15;1.80;;;0.50;79.10;;;;;;5016098;28;20021;-83
2021/11/09 15:55:55;;;;;;;3.22;1.40;;;0.50;78.90;;;;;;4998333;28;20482;-80
2021/11/09 15:58:21;;;;;;;2.60;2.22;;;0.50;78.50;;;;;;5016173;28;20093;-80
2021/11/09 16:00:48;;;;;;;4.22;1.73;;;0.40;78.80;;;;;;5016152;28;20442;-81
2021/11/09 16:03:16;;;;;;;4.35;1.40;;;0.40;78.40;;;;;;5015678;28;20030;-82
2021/11/09 16:05:43;;;;;;;6.13;2.20;;;0.40;78.10;;;;;;4998215;28;20115;-81